»·PEaware :: USC243 KMRY-KLAS

USC243 :: KMRY-KLAS

FLIGHT INFORMATION

Flight Status: Arrived
Operator: Unknown
More flights by this operator :: More flights under this callsign
Pilot: Andy P. (22680)
Aircraft: GATES LEARJET LEARJET 35/36
(LJ35)
More flights by this aircraft type
Origin: KMRY Monterey Peninsula
United States
Destination: KLAS McCarran Intl
United States
More flights between these airports :: More routes between these airports
Route: SNS PXN NTELL BTY SUNST4
File this flight plan on PilotEdge
Remarks:
Altitude:
(Current/Filed)
37,000ft
Speed:
(Current/Filed)
465kts
Departed: 08-Jun-19 08:47 AM
Arrived: 08-Jun-19 09:53 AM
Distance/Time
Traveled:
326nm/1:06
Distance/Time
To Go:
Arrived

Flight Plot

Page will automatically refresh every two minutes.

Flight plan parsing failed; only flown route is shown


Map Options




Map Legend


Flown Route
Filed Route
Departure Airport
Arrival Airport
Navaid (VOR, NDB)
Fix

Horizontal Profiles

Position Reports

Time Latitude Longitude Heading Altitude Ground
Speed
08-Jun-19 08:29 36.589336 -121.857861 343 208ft 0kts
08-Jun-19 08:30 36.589336 -121.857861 343 208ft 0kts
08-Jun-19 08:31 36.589336 -121.857861 343 208ft 0kts
08-Jun-19 08:32 36.589336 -121.857861 343 208ft 0kts
08-Jun-19 08:33 36.589336 -121.857861 343 208ft 0kts
08-Jun-19 08:34 36.589336 -121.857861 343 208ft 0kts
08-Jun-19 08:35 36.589336 -121.857861 343 208ft 0kts
08-Jun-19 08:36 36.589336 -121.857861 343 208ft 0kts
08-Jun-19 08:37 36.589336 -121.857861 343 208ft 0kts
08-Jun-19 08:38 36.589336 -121.857861 343 208ft 0kts
08-Jun-19 08:39 36.589336 -121.857861 343 208ft 0kts
08-Jun-19 08:40 36.589336 -121.857861 343 208ft 0kts
08-Jun-19 08:41 36.589336 -121.857861 343 208ft 0kts
08-Jun-19 08:42 36.589442 -121.857825 49 208ft 5kts
08-Jun-19 08:43 36.588918 -121.852467 112 208ft 22kts
08-Jun-19 08:44 36.586237 -121.844973 112 208ft 23kts
08-Jun-19 08:45 36.583678 -121.837472 111 208ft 21kts
08-Jun-19 08:46 36.584841 -121.838027 291 208ft 98kts
08-Jun-19 08:47 36.616708 -121.881591 346 2004ft 205kts
08-Jun-19 08:48 36.664591 -121.870679 76 4604ft 238kts
08-Jun-19 08:49 36.664811 -121.782672 87 7782ft 235kts
08-Jun-19 08:50 36.664124 -121.691560 90 10099ft 299kts
08-Jun-19 08:51 36.665833 -121.567395 82 14576ft 382kts
08-Jun-19 08:52 36.675250 -121.428073 84 19370ft 421kts
08-Jun-19 08:53 36.684836 -121.278631 84 23076ft 447kts
08-Jun-19 08:54 36.694756 -121.120293 84 26023ft 468kts
08-Jun-19 08:55 36.704876 -120.955284 84 28520ft 489kts
08-Jun-19 08:56 36.717187 -120.785484 79 31546ft 489kts
08-Jun-19 08:57 36.748511 -120.621697 73 34392ft 482kts
08-Jun-19 08:58 36.782330 -120.459919 73 36666ft 481kts
08-Jun-19 08:59 36.816498 -120.295405 73 37064ft 497kts
08-Jun-19 09:00 36.851286 -120.126582 73 37064ft 506kts
08-Jun-19 09:01 36.886246 -119.955265 74 37064ft 509kts
08-Jun-19 09:02 36.897599 -119.778444 91 37066ft 515kts
08-Jun-19 09:03 36.894066 -119.599218 91 37067ft 517kts
08-Jun-19 09:04 36.890224 -119.419951 91 37067ft 516kts
08-Jun-19 09:05 36.886097 -119.240491 91 37088ft 516kts
08-Jun-19 09:06 36.881710 -119.061602 91 37112ft 516kts
08-Jun-19 09:07 36.877055 -118.882616 91 37153ft 516kts
08-Jun-19 09:08 36.872112 -118.703261 91 37222ft 515kts
08-Jun-19 09:09 36.866919 -118.524473 92 37229ft 516kts
08-Jun-19 09:10 36.861447 -118.345406 92 37229ft 517kts
08-Jun-19 09:11 36.855672 -118.165377 92 37195ft 518kts
08-Jun-19 09:12 36.849635 -117.985651 92 37195ft 519kts
08-Jun-19 09:13 36.843301 -117.805264 92 37195ft 520kts
08-Jun-19 09:14 36.836702 -117.625138 92 37195ft 521kts
08-Jun-19 09:15 36.829842 -117.445340 92 35847ft 512kts
08-Jun-19 09:16 36.822819 -117.268340 92 33875ft 511kts
08-Jun-19 09:18 36.815570 -117.092227 92 31908ft 505kts
08-Jun-19 09:19 36.808169 -116.918689 92 29972ft 496kts
08-Jun-19 09:20 36.790974 -116.749714 114 28071ft 489kts
08-Jun-19 09:21 36.707193 -116.617297 133 26191ft 495kts
08-Jun-19 09:22 36.616835 -116.486003 134 24274ft 501kts
08-Jun-19 09:23 36.526164 -116.357232 134 22367ft 484kts
08-Jun-19 09:24 36.440438 -116.236182 134 20596ft 430kts
08-Jun-19 09:25 36.367986 -116.134299 134 19194ft 363kts
08-Jun-19 09:26 36.304267 -116.045009 134 17975ft 335kts
08-Jun-19 09:27 36.241998 -115.957965 134 16787ft 339kts
08-Jun-19 09:28 36.188372 -115.861974 112 15632ft 337kts
08-Jun-19 09:29 36.155471 -115.759588 113 14670ft 300kts
08-Jun-19 09:30 36.124939 -115.664698 113 13744ft 306kts
08-Jun-19 09:31 36.093443 -115.567325 113 12853ft 298kts
08-Jun-19 09:32 36.065768 -115.481838 113 11990ft 281kts
08-Jun-19 09:33 36.036109 -115.390406 111 11180ft 289kts
08-Jun-19 09:34 36.025608 -115.294912 95 10053ft 266kts
08-Jun-19 09:35 36.018965 -115.207722 93 9043ft 249kts
08-Jun-19 09:36 36.013239 -115.124101 93 8343ft 244kts
08-Jun-19 09:36 36.008732 -115.055224 92 8028ft 237kts
08-Jun-19 09:38 36.003107 -114.959889 92 8008ft 245kts
08-Jun-19 09:39 35.998137 -114.877363 93 8004ft 240kts
08-Jun-19 09:39 35.993780 -114.806986 94 7994ft 243kts
08-Jun-19 09:41 35.987942 -114.719003 94 7994ft 199kts
08-Jun-19 09:41 35.984104 -114.661981 94 8001ft 206kts
08-Jun-19 09:42 36.008966 -114.613164 352 7770ft 186kts
08-Jun-19 09:43 36.038851 -114.665106 292 6807ft 200kts
08-Jun-19 09:44 36.059134 -114.728467 292 5804ft 195kts
08-Jun-19 09:45 36.078304 -114.790259 285 4981ft 188kts
08-Jun-19 09:46 36.075864 -114.856600 264 4489ft 185kts
08-Jun-19 09:47 36.071580 -114.918782 275 4677ft 181kts
08-Jun-19 09:48 36.073874 -114.981082 274 4389ft 182kts
08-Jun-19 09:49 36.073779 -115.038600 274 3490ft 150kts
08-Jun-19 09:50 36.073583 -115.086266 276 2810ft 136kts
08-Jun-19 09:51 36.073614 -115.131822 275 2184ft 107kts
08-Jun-19 09:52 36.074698 -115.145964 296 2184ft 12kts
08-Jun-19 09:53 36.078088 -115.147143 353 2184ft 13kts
08-Jun-19 09:54 36.078329 -115.143506 91 2184ft 20kts
08-Jun-19 09:55 36.078328 -115.135407 87 2184ft 25kts
08-Jun-19 09:56 36.078853 -115.126370 359 2184ft 14kts
08-Jun-19 09:57 36.080709 -115.125579 96 2184ft 0kts
08-Jun-19 09:58 36.080709 -115.125579 96 2184ft 0kts

Navigation Log

Ident Type
Flight plan parsing failed, navigation log unavailable